Time;durP1;ratioP1;P1;durP2;ratioP2;P2;SDS_P1;SDS_P2;PMS_P1;PMS_P2;Temp;Humidity;BMP_temperature;BMP_pressure;BME280_temperature;BME280_humidity;BME280_pressure;Samples;Min_cycle;Max_cycle;Signal;HPM_P1;HPM_P2
2022/09/12 00:01:34;;;;;;;;;;;;;;;19.88;51.21;100223.19;5134898;27;20416;-80
2022/09/12 00:04:00;;;;;;;;;;;;;;;19.96;51.58;100225.56;5134941;27;19918;-81
2022/09/12 00:06:25;;;;;;;;;;;;;;;19.94;52.38;100216.78;5134988;27;19945;-80
2022/09/12 00:08:52;;;;;;;;;;;;;;;19.84;53.02;100211.06;5134725;27;19918;-80
2022/09/12 00:11:17;;;;;;;;;;;;;;;19.80;53.26;100212.59;5116314;27;19911;-80
2022/09/12 00:13:43;;;;;;;;;;;;;;;19.80;53.42;100216.16;5134710;27;19952;-80
2022/09/12 00:16:15;;;;;;;;;;;;;;;19.77;53.79;100223.97;5116399;27;19918;-80
2022/09/12 00:18:41;;;;;;;;;;;;;;;19.64;54.37;100221.41;5116272;27;19912;-80
2022/09/12 00:21:06;;;;;;;;;;;;;;;19.70;54.98;100220.50;5135032;27;20018;-80
2022/09/12 00:23:31;;;;;;;;;;;;;;;19.60;55.57;100216.41;5136656;27;19957;-80
2022/09/12 00:25:57;;;;;;;;;;;;;;;19.55;55.99;100223.59;5134763;27;20303;-80
2022/09/12 00:28:22;;;;;;;;;;;;;;;19.53;56.49;100221.13;5134532;27;19916;-80
2022/09/12 00:30:47;;;;;;;;;;;;;;;19.48;57.13;100234.63;5134690;27;19911;-80
2022/09/12 00:33:13;;;;;;;;;;;;;;;19.27;58.95;100238.66;5134576;27;20009;-81
2022/09/12 00:35:45;;;;;;;;;;;;;;;19.23;59.91;100236.63;5134176;27;19912;-80
2022/09/12 00:38:11;;;;;;;;;;;;;;;19.28;61.37;100239.50;5134415;27;19915;-80
2022/09/12 00:40:36;;;;;;;;;;;;;;;19.16;61.69;100242.16;5134227;27;20260;-80
2022/09/12 00:43:02;;;;;;;;;;;;;;;19.14;62.24;100247.81;5134275;27;19918;-81
2022/09/12 00:45:27;;;;;;;;;;;;;;;18.94;63.09;100253.50;5134172;27;19918;-82
2022/09/12 00:47:53;;;;;;;;;;;;;;;18.87;63.66;100260.06;5134668;27;19911;-81
2022/09/12 00:50:18;;;;;;;;;;;;;;;18.67;65.29;100257.50;5134540;27;19993;-81
2022/09/12 00:52:45;;;;;;;;;;;;;;;18.51;65.82;100269.78;5134387;27;19919;-81
2022/09/12 00:55:12;;;;;;;;;;;;;;;18.49;67.03;100289.06;5115664;27;19912;-81
2022/09/12 00:57:45;;;;;;;;;;;;;;;18.45;67.10;100295.16;5116441;27;19988;-81
2022/09/12 01:00:14;;;;;;;;;;;;;;;18.28;67.87;100306.59;5116596;27;20001;-81
2022/09/12 01:02:43;;;;;;;;;;;;;;;18.22;68.96;100315.66;5135301;27;19915;-82
2022/09/12 01:05:08;;;;;;;;;;;;;;;18.02;69.19;100323.09;5098538;27;19912;-81
2022/09/12 01:07:34;;;;;;;;;;;;;;;17.90;70.39;100326.50;5115405;27;19915;-81
2022/09/12 01:09:59;;;;;;;;;;;;;;;17.86;71.09;100311.69;5133634;27;19911;-81
2022/09/12 01:12:25;;;;;;;;;;;;;;;17.80;71.34;100309.81;5134069;27;19911;-81
2022/09/12 01:14:50;;;;;;;;;;;;;;;17.72;71.64;100310.03;5134516;27;20359;-81
2022/09/12 01:17:15;;;;;;;;;;;;;;;17.63;72.38;100293.16;5116998;27;19911;-82
2022/09/12 01:19:45;;;;;;;;;;;;;;;17.63;72.67;100297.75;5115470;27;19915;-81
2022/09/12 01:22:17;;;;;;;;;;;;;;;17.56;73.13;100295.06;5134641;27;20386;-82
2022/09/12 01:24:45;;;;;;;;;;;;;;;17.52;73.88;100289.22;5115095;27;19915;-82
2022/09/12 01:27:29;;;;;;;;;;;;;;;17.57;73.31;100293.19;5133393;27;19911;-80
2022/09/12 01:30:07;;;;;;;;;;;;;;;17.42;73.74;100286.13;5133131;27;19915;-80
2022/09/12 01:32:44;;;;;;;;;;;;;;;17.42;73.67;100282.56;5133307;27;19911;-81
2022/09/12 01:35:11;;;;;;;;;;;;;;;17.33;74.35;100292.03;5133050;27;20390;-81
2022/09/12 01:37:38;;;;;;;;;;;;;;;17.37;73.74;100295.97;5113824;28;19919;-81
2022/09/12 01:40:09;;;;;;;;;;;;;;;17.39;73.99;100291.16;5132633;27;19995;-82
2022/09/12 01:42:45;;;;;;;;;;;;;;;17.36;73.93;100292.41;5114490;27;19922;-80
2022/09/12 01:45:15;;;;;;;;;;;;;;;17.40;74.44;100293.66;5133045;27;19967;-82
2022/09/12 01:47:43;;;;;;;;;;;;;;;17.33;74.34;100292.84;5132489;27;19916;-81
2022/09/12 01:50:16;;;;;;;;;;;;;;;17.31;74.66;100294.94;5114346;27;20279;-82
2022/09/12 01:52:43;;;;;;;;;;;;;;;17.35;74.91;100298.91;5114149;27;20052;-82
2022/09/12 01:55:11;;;;;;;;;;;;;;;17.35;74.50;100290.75;5114618;27;19938;-82
2022/09/12 01:57:38;;;;;;;;;;;;;;;17.32;75.21;100284.91;5097126;27;19907;-82
2022/09/12 02:00:04;;;;;;;;;;;;;;;17.24;75.33;100283.28;5132319;27;19911;-81
2022/09/12 02:02:35;;;;;;;;;;;;;;;17.33;75.07;100284.72;5132859;27;19927;-82
2022/09/12 02:05:23;;;;;;;;;;;;;;;17.32;75.06;100282.19;5113965;27;20342;-82
2022/09/12 02:07:50;;;;;;;;;;;;;;;17.34;75.09;100280.94;5118701;27;20398;-82
2022/09/12 02:10:16;;;;;;;;;;;;;;;17.23;76.20;100277.00;5113786;27;19915;-82
2022/09/12 02:12:43;;;;;;;;;;;;;;;17.30;75.87;100274.25;5132591;27;19922;-82
2022/09/12 02:15:09;;;;;;;;;;;;;;;17.33;76.02;100282.00;5132835;27;20002;-82
2022/09/12 02:17:35;;;;;;;;;;;;;;;17.30;75.30;100277.81;5132065;27;20386;-82
2022/09/12 02:20:14;;;;;;;;;;;;;;;17.27;75.32;100280.94;5114282;27;19955;-81
2022/09/12 02:22:40;;;;;;;;;;;;;;;17.25;75.70;100274.06;5114079;27;19919;-82
2022/09/12 02:25:05;;;;;;;;;;;;;;;17.09;76.72;100276.22;5113937;27;19915;-81
2022/09/12 02:27:36;;;;;;;;;;;;;;;17.14;76.68;100277.44;5113868;27;19912;-81
2022/09/12 02:30:01;;;;;;;;;;;;;;;17.01;77.77;100275.59;5132295;27;19968;-82
2022/09/12 02:32:33;;;;;;;;;;;;;;;17.08;77.37;100271.81;5132346;27;19970;-82
2022/09/12 02:35:02;;;;;;;;;;;;;;;17.02;77.55;100275.41;5113475;27;20461;-82
2022/09/12 02:37:46;;;;;;;;;;;;;;;17.06;77.34;100276.63;5132028;27;19919;-82
2022/09/12 02:40:12;;;;;;;;;;;;;;;17.03;77.50;100273.50;5132076;27;19918;-82
2022/09/12 02:42:37;;;;;;;;;;;;;;;17.05;77.75;100268.72;5114287;27;19915;-82
2022/09/12 02:45:02;;;;;;;;;;;;;;;16.99;78.03;100272.25;5135002;27;19934;-82
2022/09/12 02:47:43;;;;;;;;;;;;;;;16.99;78.32;100274.97;5134184;27;19930;-82
2022/09/12 02:50:08;;;;;;;;;;;;;;;17.00;78.33;100269.34;5131624;27;19915;-82
2022/09/12 02:52:34;;;;;;;;;;;;;;;17.04;78.12;100267.88;5096568;27;20056;-82
2022/09/12 02:54:59;;;;;;;;;;;;;;;17.10;77.83;100282.47;5131992;27;20028;-80
2022/09/12 02:57:25;;;;;;;;;;;;;;;16.97;77.96;100277.88;5132537;28;19956;-81
2022/09/12 02:59:52;;;;;;;;;;;;;;;16.95;77.94;100285.44;5113633;28;20290;-81
2022/09/12 03:02:20;;;;;;;;;;;;;;;16.92;77.59;100285.84;5132204;28;19922;-81
2022/09/12 03:04:48;;;;;;;;;;;;;;;16.91;77.88;100273.34;5131870;28;19919;-80
2022/09/12 03:07:16;;;;;;;;;;;;;;;16.91;78.44;100265.19;5132141;28;20007;-80
2022/09/12 03:10:00;;;;;;;;;;;;;;;16.89;78.58;100267.28;5132524;28;19976;-79
2022/09/12 03:12:34;;;;;;;;;;;;;;;16.84;78.76;100270.63;5131855;28;19973;-80
2022/09/12 03:15:16;;;;;;;;;;;;;;;16.80;78.90;100263.09;5131560;28;19919;-82
2022/09/12 03:18:00;;;;;;;;;;;;;;;16.80;79.06;100266.66;5113553;28;20072;-81
2022/09/12 03:20:31;;;;;;;;;;;;;;;16.76;79.13;100264.53;5131430;28;19950;-82
2022/09/12 03:23:04;;;;;;;;;;;;;;;16.78;78.90;100262.44;5131769;28;19911;-81
2022/09/12 03:25:32;;;;;;;;;;;;;;;16.79;79.13;100259.56;5112857;28;20377;-81
2022/09/12 03:27:59;;;;;;;;;;;;;;;16.79;79.38;100256.03;5113290;28;19912;-82
2022/09/12 03:30:24;;;;;;;;;;;;;;;16.83;78.91;100243.69;5131342;28;19918;-80
2022/09/12 03:32:50;;;;;;;;;;;;;;;16.74;79.01;100243.06;5131360;28;19912;-81
2022/09/12 03:35:16;;;;;;;;;;;;;;;16.79;78.71;100237.03;5114459;28;20013;-81
2022/09/12 03:37:42;;;;;;;;;;;;;;;16.83;78.54;100244.53;5132996;28;19939;-82
2022/09/12 03:40:07;;;;;;;;;;;;;;;16.75;78.83;100241.16;5132988;28;19915;-81
2022/09/12 03:42:33;;;;;;;;;;;;;;;16.89;78.51;100240.13;5131698;28;19911;-81
2022/09/12 03:44:58;;;;;;;;;;;;;;;16.82;78.26;100237.41;5131289;28;20375;-81
2022/09/12 03:47:23;;;;;;;;;;;;;;;16.83;78.02;100238.25;5131547;28;19933;-82
2022/09/12 03:49:49;;;;;;;;;;;;;;;16.86;77.95;100245.97;5131300;28;19911;-81
2022/09/12 03:52:14;;;;;;;;;;;;;;;16.80;78.52;100238.69;5112529;28;20409;-81
2022/09/12 03:54:39;;;;;;;;;;;;;;;16.77;77.71;100236.38;5130977;28;20031;-81
2022/09/12 03:57:05;;;;;;;;;;;;;;;16.79;77.50;100250.59;5113371;28;19911;-81
2022/09/12 03:59:30;;;;;;;;;;;;;;;16.82;76.89;100247.44;5132097;28;20394;-81
2022/09/12 04:01:56;;;;;;;;;;;;;;;16.90;76.12;100257.25;5132754;27;19962;-82
2022/09/12 04:04:21;;;;;;;;;;;;;;;16.92;76.22;100253.25;5134846;27;19915;-82
2022/09/12 04:06:46;;;;;;;;;;;;;;;16.97;75.42;100249.91;5134761;27;19918;-81
2022/09/12 04:09:11;;;;;;;;;;;;;;;17.03;75.49;100266.19;5116129;27;19911;-81
2022/09/12 04:11:37;;;;;;;;;;;;;;;17.08;74.73;100263.66;5134711;27;20310;-81
2022/09/12 04:14:02;;;;;;;;;;;;;;;17.11;74.12;100278.69;5134711;27;19960;-81
2022/09/12 04:16:27;;;;;;;;;;;;;;;17.20;73.95;100287.47;5115979;27;20037;-81
2022/09/12 04:18:53;;;;;;;;;;;;;;;17.13;73.42;100292.06;5134479;27;19911;-82
2022/09/12 04:21:19;;;;;;;;;;;;;;;17.10;73.11;100282.47;5134149;27;19911;-80
2022/09/12 04:23:44;;;;;;;;;;;;;;;17.20;72.26;100287.47;5134831;27;19948;-82
2022/09/12 04:26:09;;;;;;;;;;;;;;;17.21;72.25;100286.44;5134052;27;19911;-82
2022/09/12 04:28:36;;;;;;;;;;;;;;;17.21;72.23;100284.53;5134314;27;19950;-81
2022/09/12 04:31:02;;;;;;;;;;;;;;;17.28;72.04;100282.63;5135114;27;19950;-80
2022/09/12 04:33:28;;;;;;;;;;;;;;;17.32;71.81;100291.16;5133722;27;20306;-81
2022/09/12 04:35:53;;;;;;;;;;;;;;;17.38;71.82;100290.31;5134095;27;19919;-81
2022/09/12 04:38:18;;;;;;;;;;;;;;;17.40;71.52;100274.66;5115489;27;20340;-82
2022/09/12 04:40:43;;;;;;;;;;;;;;;17.47;71.75;100280.88;5134262;27;19911;-81
2022/09/12 04:43:09;;;;;;;;;;;;;;;17.52;71.85;100289.22;5115812;27;20344;-81
2022/09/12 04:45:34;;;;;;;;;;;;;;;17.51;71.55;100286.72;5115370;27;19922;-82
2022/09/12 04:48:00;;;;;;;;;;;;;;;17.55;71.11;100303.44;5133996;27;19918;-82
2022/09/12 04:50:25;;;;;;;;;;;;;;;17.50;70.99;100304.91;5134176;27;19911;-82
2022/09/12 04:52:51;;;;;;;;;;;;;;;17.59;70.95;100293.81;5133741;27;19912;-82
2022/09/12 04:55:16;;;;;;;;;;;;;;;17.66;71.34;100272.88;5134444;27;19926;-82
2022/09/12 04:57:42;;;;;;;;;;;;;;;17.66;71.95;100276.41;5134868;27;19911;-82
2022/09/12 05:00:07;;;;;;;;;;;;;;;17.70;71.92;100271.38;5135581;27;19954;-82
2022/09/12 05:02:33;;;;;;;;;;;;;;;17.63;71.58;100292.31;5136284;27;20393;-82
2022/09/12 05:04:59;;;;;;;;;;;;;;;17.52;71.89;100301.97;5136413;27;19911;-81
2022/09/12 05:07:24;;;;;;;;;;;;;;;17.61;71.71;100295.25;5133422;27;20305;-81
2022/09/12 05:09:49;;;;;;;;;;;;;;;17.54;71.42;100288.19;5134757;27;19911;-81
2022/09/12 05:12:15;;;;;;;;;;;;;;;17.68;71.49;100296.06;5120182;27;20010;-82
2022/09/12 05:14:40;;;;;;;;;;;;;;;17.72;71.29;100301.88;5135889;27;20292;-81
2022/09/12 05:17:06;;;;;;;;;;;;;;;17.75;71.19;100298.75;5115117;27;19947;-81
2022/09/12 05:19:31;;;;;;;;;;;;;;;17.88;71.16;100285.09;5133659;27;19915;-81
2022/09/12 05:21:57;;;;;;;;;;;;;;;18.02;70.55;100291.28;5114733;27;19912;-82
2022/09/12 05:24:23;;;;;;;;;;;;;;;18.11;70.54;100278.25;5133004;27;20056;-81
2022/09/12 05:26:48;;;;;;;;;;;;;;;18.31;70.34;100286.31;5132994;27;20074;-82
2022/09/12 05:29:14;;;;;;;;;;;;;;;18.31;68.96;100298.00;5133464;27;19973;-81
2022/09/12 05:31:39;;;;;;;;;;;;;;;18.34;68.87;100294.84;5114683;27;19994;-82
2022/09/12 05:34:05;;;;;;;;;;;;;;;18.53;69.12;100303.91;5136039;27;19916;-82
2022/09/12 05:36:31;;;;;;;;;;;;;;;18.61;69.52;100296.50;5115411;27;19911;-82
2022/09/12 05:38:58;;;;;;;;;;;;;;;18.53;68.72;100298.44;5132963;27;19934;-81
2022/09/12 05:41:24;;;;;;;;;;;;;;;18.65;68.37;100300.47;5132879;27;20003;-82
2022/09/12 05:43:53;;;;;;;;;;;;;;;18.58;68.05;100300.50;5134221;27;19911;-82
2022/09/12 05:46:18;;;;;;;;;;;;;;;18.55;68.00;100301.78;5114893;27;19968;-82
2022/09/12 05:48:44;;;;;;;;;;;;;;;19.21;66.54;100301.41;5133625;27;19911;-82
2022/09/12 05:51:16;;;;;;;;;;;;;;;19.66;65.14;100301.09;5133504;27;19915;-82
2022/09/12 05:53:41;;;;;;;;;;;;;;;20.03;63.44;100301.88;5133005;27;19915;-81
2022/09/12 05:56:07;;;;;;;;;;;;;;;20.55;61.46;100298.53;5134314;27;20301;-81
2022/09/12 05:58:33;;;;;;;;;;;;;;;20.99;59.97;100294.44;5133301;27;19911;-81
2022/09/12 06:01:06;;;;;;;;;;;;;;;21.26;58.88;100304.88;5134468;27;20018;-82
2022/09/12 06:03:32;;;;;;;;;;;;;;;21.81;57.58;100306.31;5135224;27;19911;-82
2022/09/12 06:06:00;;;;;;;;;;;;;;;22.27;56.10;100301.72;5132614;27;19991;-82
2022/09/12 06:08:25;;;;;;;;;;;;;;;22.57;53.85;100295.94;5132864;27;20374;-82
2022/09/12 06:10:51;;;;;;;;;;;;;;;22.96;53.60;100299.53;5132732;27;19918;-81
2022/09/12 06:13:16;;;;;;;;;;;;;;;23.24;51.25;100302.41;5114038;27;19912;-81
2022/09/12 06:15:41;;;;;;;;;;;;;;;23.19;51.55;100300.44;5113879;27;20387;-81
2022/09/12 06:18:07;;;;;;;;;;;;;;;23.06;50.50;100300.78;5132514;27;19911;-84
2022/09/12 06:20:35;;;;;;;;;;;;;;;23.10;50.60;100293.72;5132227;27;19919;-82
2022/09/12 06:23:00;;;;;;;;;;;;;;;23.43;50.09;100295.53;5132581;27;20010;-82
2022/09/12 06:25:25;;;;;;;;;;;;;;;23.65;49.18;100298.28;5131831;27;20018;-81
2022/09/12 06:27:50;;;;;;;;;;;;;;;23.74;48.84;100301.41;5132563;27;19984;-82
2022/09/12 06:30:16;;;;;;;;;;;;;;;23.81;48.64;100293.81;5132421;27;19976;-81
2022/09/12 06:32:42;;;;;;;;;;;;;;;24.07;48.14;100299.56;5132023;27;20369;-81
2022/09/12 06:35:07;;;;;;;;;;;;;;;24.26;47.49;100303.63;5132357;27;19957;-81
2022/09/12 06:37:32;;;;;;;;;;;;;;;24.52;46.63;100301.97;5113900;27;19907;-80
2022/09/12 06:39:59;;;;;;;;;;;;;;;24.46;46.23;100294.72;5113961;27;20351;-81
2022/09/12 06:42:24;;;;;;;;;;;;;;;24.56;45.59;100296.75;5132504;27;20418;-81
2022/09/12 06:44:49;;;;;;;;;;;;;;;24.90;45.13;100300.03;5113468;27;19923;-81
2022/09/12 06:47:14;;;;;;;;;;;;;;;24.98;44.36;100298.69;5132213;27;19952;-81
2022/09/12 06:49:40;;;;;;;;;;;;;;;25.08;44.08;100292.47;5113695;28;19935;-81
2022/09/12 06:52:06;;;;;;;;;;;;;;;25.34;44.10;100297.03;5131636;27;19907;-81
2022/09/12 06:54:31;;;;;;;;;;;;;;;25.45;43.21;100287.72;5113566;28;19911;-81
2022/09/12 06:56:56;;;;;;;;;;;;;;;25.69;42.72;100295.50;5131923;28;20382;-81
2022/09/12 06:59:22;;;;;;;;;;;;;;;25.87;42.55;100294.19;5131573;28;20013;-81
2022/09/12 07:01:47;;;;;;;;;;;;;;;25.82;42.20;100280.41;5132119;28;19915;-82
2022/09/12 07:04:12;;;;;;;;;;;;;;;25.94;41.75;100291.19;5132098;28;19983;-82
2022/09/12 07:06:39;;;;;;;;;;;;;;;25.82;42.42;100291.41;5143979;28;19912;-80
2022/09/12 07:09:06;;;;;;;;;;;;;;;26.18;40.90;100286.03;5123965;28;19911;-80
2022/09/12 07:11:32;;;;;;;;;;;;;;;26.45;40.73;100291.25;5147328;28;19911;-81
2022/09/12 07:13:58;;;;;;;;;;;;;;;26.32;40.33;100296.22;5139414;28;20268;-81
2022/09/12 07:16:24;;;;;;;;;;;;;;;26.77;39.76;100285.47;5114749;28;20020;-81
2022/09/12 07:18:53;;;;;;;;;;;;;;;27.26;39.05;100287.59;5113726;28;19920;-81
2022/09/12 07:21:18;;;;;;;;;;;;;;;27.32;39.01;100285.63;5113733;28;20354;-82
2022/09/12 07:23:44;;;;;;;;;;;;;;;27.55;38.20;100284.97;5113892;28;19907;-82
2022/09/12 07:26:09;;;;;;;;;;;;;;;27.99;37.00;100289.75;5132850;28;20331;-82
2022/09/12 07:28:35;;;;;;;;;;;;;;;28.20;36.45;100289.63;5114261;28;20251;-81
2022/09/12 07:31:10;;;;;;;;;;;;;;;28.31;35.88;100290.38;5132705;28;19962;-81
2022/09/12 07:33:36;;;;;;;;;;;;;;;28.82;35.42;100289.94;5133538;28;19918;-80
2022/09/12 07:36:02;;;;;;;;;;;;;;;29.23;34.07;100275.69;5133001;27;19911;-81
2022/09/12 07:38:28;;;;;;;;;;;;;;;29.88;33.20;100291.78;5136858;27;20006;-82
2022/09/12 07:40:53;;;;;;;;;;;;;;;29.93;33.25;100297.25;5137243;27;20379;-82
2022/09/12 07:43:18;;;;;;;;;;;;;;;30.28;32.73;100295.09;5136466;27;20383;-82
2022/09/12 07:45:44;;;;;;;;;;;;;;;30.98;31.65;100285.84;5100507;27;20284;-82
2022/09/12 07:48:09;;;;;;;;;;;;;;;31.76;30.56;100285.94;5117050;27;20009;-83
2022/09/12 07:50:35;;;;;;;;;;;;;;;32.07;29.55;100276.91;5137125;27;19915;-83
2022/09/12 07:53:02;;;;;;;;;;;;;;;31.45;30.47;100288.56;5123910;27;19911;-83
2022/09/12 07:55:28;;;;;;;;;;;;;;;30.75;31.46;100279.31;5140949;27;19922;-80
2022/09/12 07:57:54;;;;;;;;;;;;;;;30.30;32.46;100284.53;5117691;27;19907;-82
2022/09/12 08:00:19;;;;;;;;;;;;;;;30.40;31.78;100278.81;5135565;27;19912;-82
2022/09/12 08:02:48;;;;;;;;;;;;;;;29.99;32.08;100279.44;5135102;27;20400;-83
2022/09/12 08:05:14;;;;;;;;;;;;;;;29.80;31.76;100276.63;5116997;27;19911;-83
2022/09/12 08:07:39;;;;;;;;;;;;;;;29.44;32.41;100279.03;5135139;27;19984;-83
2022/09/12 08:10:05;;;;;;;;;;;;;;;29.09;33.23;100283.06;5134879;27;19923;-83
2022/09/12 08:12:31;;;;;;;;;;;;;;;29.11;33.26;100275.28;5116222;27;19919;-83
2022/09/12 08:14:56;;;;;;;;;;;;;;;29.28;32.98;100277.59;5116136;27;20279;-83
2022/09/12 08:17:22;;;;;;;;;;;;;;;29.31;32.97;100275.03;5134971;27;19918;-83
2022/09/12 08:19:47;;;;;;;;;;;;;;;29.52;32.91;100275.59;5135154;27;19915;-82
2022/09/12 08:22:13;;;;;;;;;;;;;;;29.32;32.82;100267.56;5116912;27;19911;-83
2022/09/12 08:24:38;;;;;;;;;;;;;;;29.90;30.83;100278.47;5116096;27;19907;-82
2022/09/12 08:27:04;;;;;;;;;;;;;;;30.15;30.11;100268.91;5134482;27;19911;-82
2022/09/12 08:29:29;;;;;;;;;;;;;;;30.29;29.79;100260.69;5135242;27;19915;-83
2022/09/12 08:31:55;;;;;;;;;;;;;;;30.14;29.90;100269.22;5135658;27;19918;-82
2022/09/12 08:34:20;;;;;;;;;;;;;;;30.39;29.23;100268.00;5135609;27;19915;-83
2022/09/12 08:36:45;;;;;;;;;;;;;;;30.20;29.51;100262.47;5135006;27;19960;-81
2022/09/12 08:39:11;;;;;;;;;;;;;;;30.82;29.06;100262.25;5115962;27;20383;-83
2022/09/12 08:41:40;;;;;;;;;;;;;;;31.03;28.87;100258.00;5115970;27;20016;-82
2022/09/12 08:44:06;;;;;;;;;;;;;;;31.66;27.60;100258.38;5115695;27;20326;-81
2022/09/12 08:46:33;;;;;;;;;;;;;;;34.03;24.72;100254.53;5134092;27;20440;-81
2022/09/12 08:48:59;;;;;;;;;;;;;;;35.36;22.44;100251.91;5134898;27;19911;-83
2022/09/12 08:51:25;;;;;;;;;;;;;;;36.78;20.56;100240.81;5134500;27;19918;-81
2022/09/12 08:53:51;;;;;;;;;;;;;;;37.85;19.68;100249.91;5133864;27;19916;-82
2022/09/12 08:56:16;;;;;;;;;;;;;;;39.82;17.94;100242.97;5134065;27;19915;-82
2022/09/12 08:58:42;;;;;;;;;;;;;;;41.49;16.71;100243.56;5115767;27;19911;-81
2022/09/12 09:01:19;;;;;;;;;;;;;;;40.34;16.75;100232.38;5136619;27;19919;-81
2022/09/12 09:04:03;;;;;;;;;;;;;;;39.55;17.48;100231.53;5134986;27;20508;-83
2022/09/12 09:06:31;;;;;;;;;;;;;;;38.18;18.87;100234.84;5133819;27;20267;-82
2022/09/12 09:09:20;;;;;;;;;;;;;;;37.23;19.91;100229.56;5133520;27;19915;-81
2022/09/12 09:11:47;;;;;;;;;;;;;;;37.22;20.24;100232.69;5085706;27;20010;-81
2022/09/12 09:16:56;;;;;;;;;;;;;;;37.25;20.19;100220.78;5133364;27;20010;-82
2022/09/12 09:19:25;;;;;;;;;;;;;;;36.46;21.06;100226.53;5134097;27;19907;-82
2022/09/12 09:22:02;;;;;;;;;;;;;;;36.06;21.51;100218.69;5135213;27;20068;-81
2022/09/12 09:24:32;;;;;;;;;;;;;;;35.60;21.14;100214.91;5115099;27;19911;-82
2022/09/12 09:26:59;;;;;;;;;;;;;;;35.45;21.30;100213.53;5133557;27;19911;-81
2022/09/12 09:29:54;;;;;;;;;;;;;;;37.27;19.61;100201.63;5115056;27;19971;-82
2022/09/12 09:32:26;;;;;;;;;;;;;;;39.49;17.68;100207.69;5111340;27;20315;-82
2022/09/12 09:34:52;;;;;;;;;;;;;;;40.95;16.25;100205.28;5133365;27;19918;-82
2022/09/12 09:37:25;;;;;;;;;;;;;;;42.63;14.15;100201.00;5133488;27;19911;-80
2022/09/12 09:40:14;;;;;;;;;;;;;;;43.79;13.32;100202.22;5114374;27;20009;-81
2022/09/12 09:43:02;;;;;;;;;;;;;;;45.15;12.15;100200.78;5119330;27;20301;-81
2022/09/12 09:45:28;;;;;;;;;;;;;;;46.63;11.01;100190.38;5119289;27;20300;-81
2022/09/12 09:48:12;;;;;;;;;;;;;;;46.94;10.42;100194.16;5133018;27;19918;-82
2022/09/12 09:50:37;;;;;;;;;;;;;;;48.58;9.68;100191.28;5133462;27;19926;-82
2022/09/12 09:53:03;;;;;;;;;;;;;;;49.15;9.26;100195.19;5132851;27;19912;-81
2022/09/12 09:55:32;;;;;;;;;;;;;;;48.52;9.61;100189.34;5114422;27;19943;-82
2022/09/12 09:57:58;;;;;;;;;;;;;;;48.59;9.51;100189.25;5114264;27;19911;-82
2022/09/12 10:00:30;;;;;;;;;;;;;;;47.39;10.05;100179.06;5131759;27;19969;-81
2022/09/12 10:03:15;;;;;;;;;;;;;;;47.10;10.47;100188.75;5114529;27;19911;-81
2022/09/12 10:05:45;;;;;;;;;;;;;;;45.95;10.89;100187.97;5131161;27;19997;-82
2022/09/12 10:08:10;;;;;;;;;;;;;;;45.25;11.66;100189.44;5132407;27;19942;-82
2022/09/12 10:10:35;;;;;;;;;;;;;;;47.17;10.35;100184.22;5113849;27;20375;-81
2022/09/12 10:13:08;;;;;;;;;;;;;;;48.30;9.46;100181.13;5114319;27;19937;-82
2022/09/12 10:15:34;;;;;;;;;;;;;;;45.55;11.59;100185.28;5132712;27;19911;-82
2022/09/12 10:17:59;;;;;;;;;;;;;;;46.09;11.26;100174.50;5132490;27;20279;-81
2022/09/12 10:20:28;;;;;;;;;;;;;;;45.71;11.42;100182.00;5132125;27;19982;-83
2022/09/12 10:22:53;;;;;;;;;;;;;;;42.87;13.13;100174.16;5132416;27;20087;-81
2022/09/12 10:25:20;;;;;;;;;;;;;;;41.34;14.37;100184.16;5131834;27;19966;-81
2022/09/12 10:27:50;;;;;;;;;;;;;;;39.88;15.13;100180.41;5132434;27;20009;-81
2022/09/12 10:30:17;;;;;;;;;;;;;;;38.55;16.18;100184.13;5132729;27;20438;-81
2022/09/12 10:32:45;;;;;;;;;;;;;;;37.21;17.49;100187.06;5132386;27;19912;-82
2022/09/12 10:35:18;;;;;;;;;;;;;;;35.91;18.96;100180.94;5113935;27;19911;-81
2022/09/12 10:37:54;;;;;;;;;;;;;;;35.48;19.79;100182.94;5113543;28;20360;-81
2022/09/12 10:40:31;;;;;;;;;;;;;;;36.04;19.80;100184.63;5132246;27;20398;-81
2022/09/12 10:42:59;;;;;;;;;;;;;;;39.17;16.62;100170.38;5113553;28;19998;-82
2022/09/12 10:45:28;;;;;;;;;;;;;;;41.07;14.52;100174.06;5132477;27;20474;-82
2022/09/12 10:47:54;;;;;;;;;;;;;;;42.47;13.91;100179.47;5131989;27;19919;-81
2022/09/12 10:50:25;;;;;;;;;;;;;;;40.88;14.63;100172.16;5113678;28;19911;-81
2022/09/12 10:52:50;;;;;;;;;;;;;;;39.26;15.86;100177.41;5113338;27;19954;-81
2022/09/12 10:55:16;;;;;;;;;;;;;;;37.93;17.01;100181.63;5131658;27;20027;-82
2022/09/12 10:57:48;;;;;;;;;;;;;;;36.97;17.56;100180.28;5113349;28;20308;-81
2022/09/12 11:00:18;;;;;;;;;;;;;;;36.01;20.44;100185.28;5113419;28;19954;-82
2022/09/12 11:03:02;;;;;;;;;;;;;;;34.52;23.06;100193.75;5113950;28;20250;-81
2022/09/12 11:05:36;;;;;;;;;;;;;;;33.21;24.68;100184.59;5131983;28;19922;-82
2022/09/12 11:08:21;;;;;;;;;;;;;;;32.26;25.69;100182.19;5131563;28;19911;-82
2022/09/12 11:10:58;;;;;;;;;;;;;;;31.93;26.25;100180.47;5080776;27;20390;-81
2022/09/12 11:13:24;;;;;;;;;;;;;;;31.23;27.18;100181.78;5117533;27;19915;-82
2022/09/12 11:16:02;;;;;;;;;;;;;;;30.87;27.69;100178.94;5136342;27;19926;-82
2022/09/12 11:18:27;;;;;;;;;;;;;;;31.94;26.96;100178.53;5117554;27;19911;-82
2022/09/12 11:20:52;;;;;;;;;;;;;;;31.05;29.37;100182.75;5136139;27;20383;-82
2022/09/12 11:23:17;;;;;;;;;;;;;;;32.51;27.25;100178.75;5135906;27;19927;-82
2022/09/12 11:25:45;;;;;;;;;;;;;;;32.98;27.39;100181.06;5135585;27;19912;-81
2022/09/12 11:28:28;;;;;;;;;;;;;;;33.02;27.07;100176.50;5117272;27;19939;-82
2022/09/12 11:30:54;;;;;;;;;;;;;;;31.11;29.94;100178.72;5117119;27;20363;-81
2022/09/12 11:33:19;;;;;;;;;;;;;;;30.23;31.82;100173.97;5135821;27;20013;-81
2022/09/12 11:35:48;;;;;;;;;;;;;;;29.09;33.52;100181.50;5117862;27;19915;-83
2022/09/12 11:38:33;;;;;;;;;;;;;;;29.10;33.58;100191.44;5117807;27;19915;-83
2022/09/12 11:41:02;;;;;;;;;;;;;;;28.20;34.37;100184.59;5135844;27;19938;-82
2022/09/12 11:43:36;;;;;;;;;;;;;;;27.58;35.89;100179.53;5135194;27;19933;-83
2022/09/12 11:46:13;;;;;;;;;;;;;;;27.30;35.89;100175.56;5135753;27;19911;-81
2022/09/12 11:48:50;;;;;;;;;;;;;;;27.27;36.29;100172.53;5135141;27;19957;-83
2022/09/12 11:51:17;;;;;;;;;;;;;;;26.76;37.45;100173.50;5117055;27;19922;-82
2022/09/12 11:53:42;;;;;;;;;;;;;;;26.74;37.53;100170.25;5135362;27;19908;-82
2022/09/12 11:56:16;;;;;;;;;;;;;;;27.02;37.05;100166.00;5134865;27;19912;-82
2022/09/12 11:58:42;;;;;;;;;;;;;;;27.81;35.78;100168.84;5117086;27;19914;-82
2022/09/12 12:01:12;;;;;;;;;;;;;;;28.55;34.82;100157.75;5096143;28;19985;-82
2022/09/12 12:03:42;;;;;;;;;;;;;;;27.93;35.35;100154.72;5112971;28;20314;-81
2022/09/12 12:06:28;;;;;;;;;;;;;;;27.85;35.61;100164.44;5114087;28;20010;-80
2022/09/12 12:08:54;;;;;;;;;;;;;;;27.48;36.53;100173.22;5113612;28;19912;-82
2022/09/12 12:11:25;;;;;;;;;;;;;;;27.23;37.64;100172.28;5113095;28;19956;-82
2022/09/12 12:13:52;;;;;;;;;;;;;;;27.17;37.47;100184.41;5114902;28;19930;-82
2022/09/12 12:16:36;;;;;;;;;;;;;;;27.03;37.55;100177.84;5114201;28;19915;-81
2022/09/12 12:19:07;;;;;;;;;;;;;;;27.13;37.92;100178.63;5114089;28;19923;-82
2022/09/12 12:21:32;;;;;;;;;;;;;;;27.61;37.09;100177.31;5113184;28;20010;-82
2022/09/12 12:24:01;;;;;;;;;;;;;;;27.49;37.27;100169.38;5113573;28;19961;-82
2022/09/12 12:26:56;;;;;;;;;;;;;;;27.76;36.32;100168.91;5095776;28;20334;-82
2022/09/12 12:29:22;;;;;;;;;;;;;;;27.82;36.51;100165.00;5111880;28;19918;-81
2022/09/12 12:32:02;;;;;;;;;;;;;;;28.25;35.42;100156.91;5114291;28;19916;-81
2022/09/12 12:34:37;;;;;;;;;;;;;;;27.79;36.76;100154.50;5114072;28;20367;-82
2022/09/12 12:37:17;;;;;;;;;;;;;;;27.87;36.03;100170.50;5113911;28;19923;-81
2022/09/12 12:39:43;;;;;;;;;;;;;;;27.46;36.37;100162.47;5114024;28;19912;-82
2022/09/12 12:42:08;;;;;;;;;;;;;;;27.39;36.81;100167.47;5117447;28;19937;-82
2022/09/12 12:44:43;;;;;;;;;;;;;;;27.16;36.93;100171.72;5123233;28;20391;-81
2022/09/12 12:47:28;;;;;;;;;;;;;;;27.35;36.80;100171.94;5124045;28;20275;-82